sensor_id;sensor_type;location;lat;lon;timestamp;P1;durP1;ratioP1;P2;durP2;ratioP2
69005;SDS011;56061;51.748;19.620;2022-12-07T00:01:38;25.20;;;11.10;;
69005;SDS011;56061;51.748;19.620;2022-12-07T00:04:09;29.80;;;13.10;;
69005;SDS011;56061;51.748;19.620;2022-12-07T00:06:42;24.20;;;11.90;;
69005;SDS011;56061;51.748;19.620;2022-12-07T00:09:13;24.20;;;11.10;;
69005;SDS011;56061;51.748;19.620;2022-12-07T00:11:41;28.90;;;11.70;;
69005;SDS011;56061;51.748;19.620;2022-12-07T00:14:11;22.60;;;10.60;;
69005;SDS011;56061;51.748;19.620;2022-12-07T00:16:40;25.90;;;11.90;;
69005;SDS011;56061;51.748;19.620;2022-12-07T00:19:09;22.70;;;10.60;;
69005;SDS011;56061;51.748;19.620;2022-12-07T00:21:37;22.70;;;10.50;;
69005;SDS011;56061;51.748;19.620;2022-12-07T00:24:05;23.40;;;10.60;;
69005;SDS011;56061;51.748;19.620;2022-12-07T00:26:34;27.30;;;11.90;;
69005;SDS011;56061;51.748;19.620;2022-12-07T00:29:05;25.50;;;11.50;;
69005;SDS011;56061;51.748;19.620;2022-12-07T00:31:35;24.40;;;11.80;;
69005;SDS011;56061;51.748;19.620;2022-12-07T00:34:07;31.30;;;13.40;;
69005;SDS011;56061;51.748;19.620;2022-12-07T00:36:37;26.30;;;11.20;;
69005;SDS011;56061;51.748;19.620;2022-12-07T00:39:04;25.90;;;11.20;;
69005;SDS011;56061;51.748;19.620;2022-12-07T00:41:30;20.90;;;10.00;;
69005;SDS011;56061;51.748;19.620;2022-12-07T00:43:57;21.60;;;10.50;;
69005;SDS011;56061;51.748;19.620;2022-12-07T00:46:25;21.40;;;9.40;;
69005;SDS011;56061;51.748;19.620;2022-12-07T00:48:53;25.00;;;10.10;;
69005;SDS011;56061;51.748;19.620;2022-12-07T00:51:22;24.20;;;10.00;;
69005;SDS011;56061;51.748;19.620;2022-12-07T00:53:50;20.80;;;9.60;;
69005;SDS011;56061;51.748;19.620;2022-12-07T00:56:23;23.90;;;10.30;;
69005;SDS011;56061;51.748;19.620;2022-12-07T00:58:59;24.30;;;10.40;;
69005;SDS011;56061;51.748;19.620;2022-12-07T01:01:30;22.30;;;9.30;;
69005;SDS011;56061;51.748;19.620;2022-12-07T01:03:58;21.60;;;8.80;;
69005;SDS011;56061;51.748;19.620;2022-12-07T01:06:27;23.30;;;9.90;;
69005;SDS011;56061;51.748;19.620;2022-12-07T01:08:55;23.10;;;10.10;;
69005;SDS011;56061;51.748;19.620;2022-12-07T01:11:25;22.40;;;9.60;;
69005;SDS011;56061;51.748;19.620;2022-12-07T01:13:54;23.70;;;9.70;;
69005;SDS011;56061;51.748;19.620;2022-12-07T01:16:25;23.10;;;9.40;;
69005;SDS011;56061;51.748;19.620;2022-12-07T01:18:54;23.30;;;8.50;;
69005;SDS011;56061;51.748;19.620;2022-12-07T01:21:23;24.60;;;10.60;;
69005;SDS011;56061;51.748;19.620;2022-12-07T01:23:52;20.90;;;7.80;;
69005;SDS011;56061;51.748;19.620;2022-12-07T01:26:21;22.90;;;9.50;;
69005;SDS011;56061;51.748;19.620;2022-12-07T01:28:50;24.00;;;10.00;;
69005;SDS011;56061;51.748;19.620;2022-12-07T01:31:20;26.60;;;10.90;;
69005;SDS011;56061;51.748;19.620;2022-12-07T01:33:53;26.30;;;10.20;;
69005;SDS011;56061;51.748;19.620;2022-12-07T01:36:30;21.00;;;9.60;;
69005;SDS011;56061;51.748;19.620;2022-12-07T01:39:01;19.60;;;8.50;;
69005;SDS011;56061;51.748;19.620;2022-12-07T01:41:32;21.20;;;9.80;;
69005;SDS011;56061;51.748;19.620;2022-12-07T01:46:52;19.20;;;8.50;;
69005;SDS011;56061;51.748;19.620;2022-12-07T01:51:56;18.70;;;8.10;;
69005;SDS011;56061;51.748;19.620;2022-12-07T01:54:39;23.60;;;9.10;;
69005;SDS011;56061;51.748;19.620;2022-12-07T01:57:08;24.10;;;9.20;;
69005;SDS011;56061;51.748;19.620;2022-12-07T01:59:35;18.90;;;8.80;;
69005;SDS011;56061;51.748;19.620;2022-12-07T02:02:07;19.80;;;9.30;;
69005;SDS011;56061;51.748;19.620;2022-12-07T02:04:38;16.50;;;7.90;;
69005;SDS011;56061;51.748;19.620;2022-12-07T02:07:05;17.50;;;7.80;;
69005;SDS011;56061;51.748;19.620;2022-12-07T02:09:32;16.70;;;7.70;;
69005;SDS011;56061;51.748;19.620;2022-12-07T02:11:59;20.40;;;8.20;;
69005;SDS011;56061;51.748;19.620;2022-12-07T02:14:25;18.70;;;8.30;;
69005;SDS011;56061;51.748;19.620;2022-12-07T02:20:00;17.80;;;7.40;;
69005;SDS011;56061;51.748;19.620;2022-12-07T02:26:02;20.30;;;8.50;;
69005;SDS011;56061;51.748;19.620;2022-12-07T02:29:19;17.10;;;7.80;;
69005;SDS011;56061;51.748;19.620;2022-12-07T02:32:06;14.40;;;7.30;;
69005;SDS011;56061;51.748;19.620;2022-12-07T02:37:34;14.60;;;7.20;;
69005;SDS011;56061;51.748;19.620;2022-12-07T02:40:20;12.90;;;6.60;;
69005;SDS011;56061;51.748;19.620;2022-12-07T02:43:01;13.10;;;6.30;;
69005;SDS011;56061;51.748;19.620;2022-12-07T02:45:34;16.40;;;8.10;;
69005;SDS011;56061;51.748;19.620;2022-12-07T02:48:06;13.30;;;6.80;;
69005;SDS011;56061;51.748;19.620;2022-12-07T02:50:34;15.20;;;6.50;;
69005;SDS011;56061;51.748;19.620;2022-12-07T02:53:01;12.00;;;6.00;;
69005;SDS011;56061;51.748;19.620;2022-12-07T02:55:37;14.50;;;6.80;;
69005;SDS011;56061;51.748;19.620;2022-12-07T02:58:22;14.20;;;7.00;;
69005;SDS011;56061;51.748;19.620;2022-12-07T03:01:11;13.50;;;6.80;;
69005;SDS011;56061;51.748;19.620;2022-12-07T03:03:57;11.30;;;5.70;;
69005;SDS011;56061;51.748;19.620;2022-12-07T03:06:36;12.00;;;6.00;;
69005;SDS011;56061;51.748;19.620;2022-12-07T03:09:20;12.40;;;5.70;;
69005;SDS011;56061;51.748;19.620;2022-12-07T03:12:01;14.40;;;6.50;;
69005;SDS011;56061;51.748;19.620;2022-12-07T03:14:47;12.40;;;5.60;;
69005;SDS011;56061;51.748;19.620;2022-12-07T03:17:27;14.00;;;6.20;;
69005;SDS011;56061;51.748;19.620;2022-12-07T03:19:59;13.40;;;6.00;;
69005;SDS011;56061;51.748;19.620;2022-12-07T03:22:31;12.90;;;6.60;;
69005;SDS011;56061;51.748;19.620;2022-12-07T03:25:04;14.00;;;6.10;;
69005;SDS011;56061;51.748;19.620;2022-12-07T03:30:34;12.30;;;6.80;;
69005;SDS011;56061;51.748;19.620;2022-12-07T03:33:22;12.20;;;6.30;;
69005;SDS011;56061;51.748;19.620;2022-12-07T03:36:11;11.00;;;5.20;;
69005;SDS011;56061;51.748;19.620;2022-12-07T03:38:55;12.70;;;6.20;;
69005;SDS011;56061;51.748;19.620;2022-12-07T03:41:29;13.70;;;6.20;;
69005;SDS011;56061;51.748;19.620;2022-12-07T03:43:59;14.40;;;6.40;;
69005;SDS011;56061;51.748;19.620;2022-12-07T03:49:51;14.00;;;6.30;;
69005;SDS011;56061;51.748;19.620;2022-12-07T03:52:31;13.40;;;6.80;;
69005;SDS011;56061;51.748;19.620;2022-12-07T03:55:24;15.80;;;6.90;;
69005;SDS011;56061;51.748;19.620;2022-12-07T03:58:00;12.30;;;5.80;;
69005;SDS011;56061;51.748;19.620;2022-12-07T04:00:31;11.50;;;5.10;;
69005;SDS011;56061;51.748;19.620;2022-12-07T04:02:58;11.60;;;5.10;;
69005;SDS011;56061;51.748;19.620;2022-12-07T04:05:25;10.90;;;4.30;;
69005;SDS011;56061;51.748;19.620;2022-12-07T04:07:52;10.40;;;4.10;;
69005;SDS011;56061;51.748;19.620;2022-12-07T04:10:19;14.10;;;6.20;;
69005;SDS011;56061;51.748;19.620;2022-12-07T04:12:46;13.10;;;5.80;;
69005;SDS011;56061;51.748;19.620;2022-12-07T04:15:12;11.00;;;4.80;;
69005;SDS011;56061;51.748;19.620;2022-12-07T04:17:39;13.40;;;5.10;;
69005;SDS011;56061;51.748;19.620;2022-12-07T04:20:06;11.70;;;5.80;;
69005;SDS011;56061;51.748;19.620;2022-12-07T04:22:33;11.70;;;4.80;;
69005;SDS011;56061;51.748;19.620;2022-12-07T04:24:59;12.80;;;5.00;;
69005;SDS011;56061;51.748;19.620;2022-12-07T04:27:26;10.80;;;3.80;;
69005;SDS011;56061;51.748;19.620;2022-12-07T04:29:52;13.50;;;5.40;;
69005;SDS011;56061;51.748;19.620;2022-12-07T04:32:19;11.90;;;4.70;;
69005;SDS011;56061;51.748;19.620;2022-12-07T04:34:45;13.20;;;5.30;;
69005;SDS011;56061;51.748;19.620;2022-12-07T04:37:16;13.90;;;5.40;;
69005;SDS011;56061;51.748;19.620;2022-12-07T04:39:43;12.30;;;5.00;;
69005;SDS011;56061;51.748;19.620;2022-12-07T04:42:13;10.80;;;4.50;;
69005;SDS011;56061;51.748;19.620;2022-12-07T04:44:39;9.10;;;4.40;;
69005;SDS011;56061;51.748;19.620;2022-12-07T04:47:06;12.10;;;5.50;;
69005;SDS011;56061;51.748;19.620;2022-12-07T04:49:33;10.40;;;4.10;;
69005;SDS011;56061;51.748;19.620;2022-12-07T04:51:59;6.40;;;3.10;;
69005;SDS011;56061;51.748;19.620;2022-12-07T04:54:26;7.40;;;3.30;;
69005;SDS011;56061;51.748;19.620;2022-12-07T04:56:52;8.60;;;3.70;;
69005;SDS011;56061;51.748;19.620;2022-12-07T04:59:19;9.00;;;3.70;;
69005;SDS011;56061;51.748;19.620;2022-12-07T05:01:45;7.00;;;2.90;;
69005;SDS011;56061;51.748;19.620;2022-12-07T05:04:12;8.80;;;4.10;;
69005;SDS011;56061;51.748;19.620;2022-12-07T05:06:38;9.80;;;4.00;;
69005;SDS011;56061;51.748;19.620;2022-12-07T05:09:05;10.40;;;4.20;;
69005;SDS011;56061;51.748;19.620;2022-12-07T05:11:31;8.90;;;3.80;;
69005;SDS011;56061;51.748;19.620;2022-12-07T05:14:07;10.30;;;5.40;;
69005;SDS011;56061;51.748;19.620;2022-12-07T05:16:39;14.20;;;7.50;;
69005;SDS011;56061;51.748;19.620;2022-12-07T05:19:07;28.60;;;13.30;;
69005;SDS011;56061;51.748;19.620;2022-12-07T05:21:35;45.90;;;21.00;;
69005;SDS011;56061;51.748;19.620;2022-12-07T05:24:03;20.10;;;10.60;;
69005;SDS011;56061;51.748;19.620;2022-12-07T05:26:31;18.90;;;8.90;;
69005;SDS011;56061;51.748;19.620;2022-12-07T05:28:58;14.00;;;5.90;;
69005;SDS011;56061;51.748;19.620;2022-12-07T05:31:25;13.50;;;6.10;;
69005;SDS011;56061;51.748;19.620;2022-12-07T05:33:53;10.00;;;4.10;;
69005;SDS011;56061;51.748;19.620;2022-12-07T05:36:19;9.00;;;4.30;;
69005;SDS011;56061;51.748;19.620;2022-12-07T05:38:46;12.90;;;5.70;;
69005;SDS011;56061;51.748;19.620;2022-12-07T05:41:15;10.70;;;4.50;;
69005;SDS011;56061;51.748;19.620;2022-12-07T05:44:02;8.10;;;3.70;;
69005;SDS011;56061;51.748;19.620;2022-12-07T05:46:29;9.40;;;4.20;;
69005;SDS011;56061;51.748;19.620;2022-12-07T05:48:56;7.90;;;4.20;;
69005;SDS011;56061;51.748;19.620;2022-12-07T05:51:22;9.50;;;3.80;;
69005;SDS011;56061;51.748;19.620;2022-12-07T05:53:49;21.10;;;7.00;;
69005;SDS011;56061;51.748;19.620;2022-12-07T05:56:15;24.20;;;7.90;;
69005;SDS011;56061;51.748;19.620;2022-12-07T05:58:42;16.90;;;6.10;;
69005;SDS011;56061;51.748;19.620;2022-12-07T06:01:27;16.80;;;5.80;;
69005;SDS011;56061;51.748;19.620;2022-12-07T06:03:54;18.60;;;7.10;;
69005;SDS011;56061;51.748;19.620;2022-12-07T06:06:21;16.80;;;6.00;;
69005;SDS011;56061;51.748;19.620;2022-12-07T06:08:47;14.30;;;5.60;;
69005;SDS011;56061;51.748;19.620;2022-12-07T06:11:14;15.00;;;6.00;;
69005;SDS011;56061;51.748;19.620;2022-12-07T06:13:59;16.70;;;6.70;;
69005;SDS011;56061;51.748;19.620;2022-12-07T06:16:26;24.80;;;9.60;;
69005;SDS011;56061;51.748;19.620;2022-12-07T06:18:52;14.90;;;6.80;;
69005;SDS011;56061;51.748;19.620;2022-12-07T06:21:19;15.50;;;6.60;;
69005;SDS011;56061;51.748;19.620;2022-12-07T06:23:45;15.00;;;6.80;;
69005;SDS011;56061;51.748;19.620;2022-12-07T06:26:11;15.00;;;7.10;;
69005;SDS011;56061;51.748;19.620;2022-12-07T06:28:38;12.70;;;6.70;;
69005;SDS011;56061;51.748;19.620;2022-12-07T06:31:04;13.40;;;5.90;;
69005;SDS011;56061;51.748;19.620;2022-12-07T06:33:38;12.60;;;5.50;;
69005;SDS011;56061;51.748;19.620;2022-12-07T06:36:05;13.50;;;6.50;;
69005;SDS011;56061;51.748;19.620;2022-12-07T06:38:32;17.50;;;7.70;;
69005;SDS011;56061;51.748;19.620;2022-12-07T06:40:58;14.10;;;6.40;;
69005;SDS011;56061;51.748;19.620;2022-12-07T06:43:25;14.30;;;6.20;;
69005;SDS011;56061;51.748;19.620;2022-12-07T06:45:51;13.30;;;6.10;;
69005;SDS011;56061;51.748;19.620;2022-12-07T06:48:18;15.50;;;7.00;;
69005;SDS011;56061;51.748;19.620;2022-12-07T06:50:45;15.10;;;8.10;;
69005;SDS011;56061;51.748;19.620;2022-12-07T06:53:19;14.50;;;5.70;;
69005;SDS011;56061;51.748;19.620;2022-12-07T06:55:46;15.30;;;6.70;;
69005;SDS011;56061;51.748;19.620;2022-12-07T06:58:12;19.20;;;8.80;;
69005;SDS011;56061;51.748;19.620;2022-12-07T07:00:39;17.40;;;7.10;;
69005;SDS011;56061;51.748;19.620;2022-12-07T07:03:05;15.40;;;6.50;;
69005;SDS011;56061;51.748;19.620;2022-12-07T07:05:32;15.00;;;6.10;;
69005;SDS011;56061;51.748;19.620;2022-12-07T07:07:58;13.80;;;6.60;;
69005;SDS011;56061;51.748;19.620;2022-12-07T07:10:45;16.00;;;6.70;;
69005;SDS011;56061;51.748;19.620;2022-12-07T07:13:11;13.40;;;6.60;;
69005;SDS011;56061;51.748;19.620;2022-12-07T07:15:38;21.50;;;9.60;;
69005;SDS011;56061;51.748;19.620;2022-12-07T07:18:05;27.10;;;13.30;;
69005;SDS011;56061;51.748;19.620;2022-12-07T07:20:33;18.00;;;9.10;;
69005;SDS011;56061;51.748;19.620;2022-12-07T07:23:00;17.00;;;6.80;;
69005;SDS011;56061;51.748;19.620;2022-12-07T07:25:27;22.20;;;11.80;;
69005;SDS011;56061;51.748;19.620;2022-12-07T07:27:53;21.50;;;9.80;;
69005;SDS011;56061;51.748;19.620;2022-12-07T07:30:20;23.60;;;11.30;;
69005;SDS011;56061;51.748;19.620;2022-12-07T07:32:47;17.80;;;7.10;;
69005;SDS011;56061;51.748;19.620;2022-12-07T07:35:15;23.30;;;15.50;;
69005;SDS011;56061;51.748;19.620;2022-12-07T07:37:41;20.20;;;10.60;;
69005;SDS011;56061;51.748;19.620;2022-12-07T07:40:09;22.30;;;12.40;;
69005;SDS011;56061;51.748;19.620;2022-12-07T07:42:36;20.00;;;11.00;;
69005;SDS011;56061;51.748;19.620;2022-12-07T07:45:02;20.70;;;10.90;;
69005;SDS011;56061;51.748;19.620;2022-12-07T07:47:29;21.30;;;10.90;;
69005;SDS011;56061;51.748;19.620;2022-12-07T07:49:55;19.30;;;11.20;;
69005;SDS011;56061;51.748;19.620;2022-12-07T07:52:22;13.70;;;6.20;;
69005;SDS011;56061;51.748;19.620;2022-12-07T07:54:48;15.10;;;8.50;;
69005;SDS011;56061;51.748;19.620;2022-12-07T07:57:16;25.20;;;12.80;;
69005;SDS011;56061;51.748;19.620;2022-12-07T07:59:43;20.30;;;10.10;;
69005;SDS011;56061;51.748;19.620;2022-12-07T08:02:17;21.10;;;10.90;;
69005;SDS011;56061;51.748;19.620;2022-12-07T08:04:45;13.20;;;6.60;;
69005;SDS011;56061;51.748;19.620;2022-12-07T08:07:13;15.60;;;7.50;;
69005;SDS011;56061;51.748;19.620;2022-12-07T08:09:41;16.30;;;7.80;;
69005;SDS011;56061;51.748;19.620;2022-12-07T08:12:08;25.80;;;12.60;;
69005;SDS011;56061;51.748;19.620;2022-12-07T08:14:35;21.40;;;9.10;;
69005;SDS011;56061;51.748;19.620;2022-12-07T08:17:01;19.70;;;10.70;;
69005;SDS011;56061;51.748;19.620;2022-12-07T08:19:28;18.90;;;9.30;;
69005;SDS011;56061;51.748;19.620;2022-12-07T08:21:55;23.40;;;12.20;;
69005;SDS011;56061;51.748;19.620;2022-12-07T08:24:23;21.70;;;10.30;;
69005;SDS011;56061;51.748;19.620;2022-12-07T08:26:51;21.70;;;11.50;;
69005;SDS011;56061;51.748;19.620;2022-12-07T08:29:18;20.50;;;8.20;;
69005;SDS011;56061;51.748;19.620;2022-12-07T08:31:44;20.50;;;8.60;;
69005;SDS011;56061;51.748;19.620;2022-12-07T08:34:12;18.40;;;8.90;;
69005;SDS011;56061;51.748;19.620;2022-12-07T08:36:39;22.10;;;9.70;;
69005;SDS011;56061;51.748;19.620;2022-12-07T08:39:06;18.60;;;8.00;;
69005;SDS011;56061;51.748;19.620;2022-12-07T08:41:52;22.10;;;9.60;;
69005;SDS011;56061;51.748;19.620;2022-12-07T08:44:19;16.40;;;7.10;;
69005;SDS011;56061;51.748;19.620;2022-12-07T08:46:54;17.50;;;7.80;;
69005;SDS011;56061;51.748;19.620;2022-12-07T08:49:31;16.30;;;7.00;;
69005;SDS011;56061;51.748;19.620;2022-12-07T08:52:04;19.00;;;8.30;;
69005;SDS011;56061;51.748;19.620;2022-12-07T08:54:33;21.00;;;10.30;;
69005;SDS011;56061;51.748;19.620;2022-12-07T08:57:02;25.20;;;12.40;;
69005;SDS011;56061;51.748;19.620;2022-12-07T08:59:29;22.20;;;10.40;;
69005;SDS011;56061;51.748;19.620;2022-12-07T09:01:57;21.60;;;9.20;;
69005;SDS011;56061;51.748;19.620;2022-12-07T09:04:23;50.10;;;22.90;;
69005;SDS011;56061;51.748;19.620;2022-12-07T09:06:50;30.10;;;14.50;;
69005;SDS011;56061;51.748;19.620;2022-12-07T09:09:17;41.30;;;18.60;;
69005;SDS011;56061;51.748;19.620;2022-12-07T09:11:43;78.80;;;31.50;;
69005;SDS011;56061;51.748;19.620;2022-12-07T09:14:12;39.40;;;17.00;;
69005;SDS011;56061;51.748;19.620;2022-12-07T09:16:39;41.20;;;17.90;;
69005;SDS011;56061;51.748;19.620;2022-12-07T09:19:07;86.00;;;35.20;;
69005;SDS011;56061;51.748;19.620;2022-12-07T09:21:34;81.70;;;32.80;;
69005;SDS011;56061;51.748;19.620;2022-12-07T09:24:00;63.40;;;26.80;;
69005;SDS011;56061;51.748;19.620;2022-12-07T09:26:27;79.80;;;27.50;;
69005;SDS011;56061;51.748;19.620;2022-12-07T09:28:53;99.90;;;32.70;;
69005;SDS011;56061;51.748;19.620;2022-12-07T09:31:20;97.90;;;33.90;;
69005;SDS011;56061;51.748;19.620;2022-12-07T09:33:57;92.10;;;27.30;;
69005;SDS011;56061;51.748;19.620;2022-12-07T09:36:26;106.60;;;29.70;;
69005;SDS011;56061;51.748;19.620;2022-12-07T09:38:55;145.70;;;36.00;;
69005;SDS011;56061;51.748;19.620;2022-12-07T09:41:23;137.70;;;36.00;;
69005;SDS011;56061;51.748;19.620;2022-12-07T09:43:52;113.40;;;29.10;;
69005;SDS011;56061;51.748;19.620;2022-12-07T09:46:21;51.20;;;16.60;;
69005;SDS011;56061;51.748;19.620;2022-12-07T09:48:49;24.20;;;10.00;;
69005;SDS011;56061;51.748;19.620;2022-12-07T09:51:19;21.00;;;9.80;;
69005;SDS011;56061;51.748;19.620;2022-12-07T09:53:53;17.00;;;8.00;;
69005;SDS011;56061;51.748;19.620;2022-12-07T09:56:21;15.30;;;7.30;;
69005;SDS011;56061;51.748;19.620;2022-12-07T09:58:50;28.50;;;10.40;;
69005;SDS011;56061;51.748;19.620;2022-12-07T10:01:21;32.60;;;11.60;;
69005;SDS011;56061;51.748;19.620;2022-12-07T10:03:53;24.50;;;8.90;;
69005;SDS011;56061;51.748;19.620;2022-12-07T10:06:24;15.70;;;7.40;;
69005;SDS011;56061;51.748;19.620;2022-12-07T10:08:51;27.80;;;10.00;;
69005;SDS011;56061;51.748;19.620;2022-12-07T10:11:17;28.00;;;12.90;;
69005;SDS011;56061;51.748;19.620;2022-12-07T10:13:49;39.40;;;13.50;;
69005;SDS011;56061;51.748;19.620;2022-12-07T10:16:38;25.30;;;12.50;;
69005;SDS011;56061;51.748;19.620;2022-12-07T10:19:20;39.80;;;17.80;;
69005;SDS011;56061;51.748;19.620;2022-12-07T10:22:10;75.90;;;31.10;;
69005;SDS011;56061;51.748;19.620;2022-12-07T10:24:43;39.60;;;17.70;;
69005;SDS011;56061;51.748;19.620;2022-12-07T10:27:31;76.00;;;32.80;;
69005;SDS011;56061;51.748;19.620;2022-12-07T10:29:58;52.80;;;22.30;;
69005;SDS011;56061;51.748;19.620;2022-12-07T10:32:30;40.20;;;17.80;;
69005;SDS011;56061;51.748;19.620;2022-12-07T10:35:35;79.20;;;30.50;;
69005;SDS011;56061;51.748;19.620;2022-12-07T10:38:16;55.60;;;26.20;;
69005;SDS011;56061;51.748;19.620;2022-12-07T10:40:43;29.50;;;14.40;;
69005;SDS011;56061;51.748;19.620;2022-12-07T10:48:39;18.40;;;9.20;;
69005;SDS011;56061;51.748;19.620;2022-12-07T10:51:27;27.90;;;14.50;;
69005;SDS011;56061;51.748;19.620;2022-12-07T10:54:20;38.50;;;15.50;;
69005;SDS011;56061;51.748;19.620;2022-12-07T11:00:15;41.40;;;15.00;;
69005;SDS011;56061;51.748;19.620;2022-12-07T11:08:44;26.60;;;10.40;;
69005;SDS011;56061;51.748;19.620;2022-12-07T11:11:35;24.40;;;11.50;;
69005;SDS011;56061;51.748;19.620;2022-12-07T11:17:48;18.70;;;8.60;;
69005;SDS011;56061;51.748;19.620;2022-12-07T11:20:44;18.40;;;6.90;;
69005;SDS011;56061;51.748;19.620;2022-12-07T11:35:51;22.10;;;9.20;;
69005;SDS011;56061;51.748;19.620;2022-12-07T11:38:27;24.60;;;9.60;;
69005;SDS011;56061;51.748;19.620;2022-12-07T11:41:04;16.70;;;7.80;;
69005;SDS011;56061;51.748;19.620;2022-12-07T11:44:38;22.30;;;9.20;;
69005;SDS011;56061;51.748;19.620;2022-12-07T11:47:06;15.40;;;6.60;;
69005;SDS011;56061;51.748;19.620;2022-12-07T11:52:26;14.90;;;7.90;;
69005;SDS011;56061;51.748;19.620;2022-12-07T11:54:59;38.70;;;15.30;;
69005;SDS011;56061;51.748;19.620;2022-12-07T11:57:36;30.50;;;12.20;;
69005;SDS011;56061;51.748;19.620;2022-12-07T12:00:15;29.50;;;10.80;;
69005;SDS011;56061;51.748;19.620;2022-12-07T12:05:22;35.70;;;12.70;;
69005;SDS011;56061;51.748;19.620;2022-12-07T12:08:17;30.30;;;12.40;;
69005;SDS011;56061;51.748;19.620;2022-12-07T12:20:51;28.10;;;10.80;;
69005;SDS011;56061;51.748;19.620;2022-12-07T12:26:01;18.10;;;8.30;;
69005;SDS011;56061;51.748;19.620;2022-12-07T12:29:06;48.30;;;19.40;;
69005;SDS011;56061;51.748;19.620;2022-12-07T12:31:47;26.90;;;13.70;;
69005;SDS011;56061;51.748;19.620;2022-12-07T12:34:39;109.10;;;40.30;;
69005;SDS011;56061;51.748;19.620;2022-12-07T12:45:29;32.50;;;18.70;;
69005;SDS011;56061;51.748;19.620;2022-12-07T12:48:00;45.10;;;27.60;;
69005;SDS011;56061;51.748;19.620;2022-12-07T12:50:35;60.70;;;27.20;;
69005;SDS011;56061;51.748;19.620;2022-12-07T12:53:05;70.50;;;34.80;;
69005;SDS011;56061;51.748;19.620;2022-12-07T13:01:25;73.30;;;32.80;;
69005;SDS011;56061;51.748;19.620;2022-12-07T13:03:57;62.60;;;28.40;;
69005;SDS011;56061;51.748;19.620;2022-12-07T13:08:54;46.50;;;21.80;;
69005;SDS011;56061;51.748;19.620;2022-12-07T13:11:34;43.60;;;19.70;;
69005;SDS011;56061;51.748;19.620;2022-12-07T13:20:01;35.00;;;17.60;;
69005;SDS011;56061;51.748;19.620;2022-12-07T13:27:37;28.20;;;13.70;;
69005;SDS011;56061;51.748;19.620;2022-12-07T13:30:18;36.90;;;16.50;;
69005;SDS011;56061;51.748;19.620;2022-12-07T13:32:52;29.20;;;12.90;;
69005;SDS011;56061;51.748;19.620;2022-12-07T13:35:34;39.60;;;15.10;;
69005;SDS011;56061;51.748;19.620;2022-12-07T13:38:18;37.20;;;14.70;;
69005;SDS011;56061;51.748;19.620;2022-12-07T13:41:12;32.10;;;13.80;;
69005;SDS011;56061;51.748;19.620;2022-12-07T13:43:48;30.50;;;11.60;;
69005;SDS011;56061;51.748;19.620;2022-12-07T13:46:57;40.00;;;16.20;;
69005;SDS011;56061;51.748;19.620;2022-12-07T13:49:33;55.10;;;19.50;;
69005;SDS011;56061;51.748;19.620;2022-12-07T13:52:14;39.90;;;16.40;;
69005;SDS011;56061;51.748;19.620;2022-12-07T13:57:37;26.50;;;11.20;;
69005;SDS011;56061;51.748;19.620;2022-12-07T14:00:13;26.50;;;10.30;;
69005;SDS011;56061;51.748;19.620;2022-12-07T14:02:58;30.80;;;13.40;;
69005;SDS011;56061;51.748;19.620;2022-12-07T14:05:31;27.60;;;12.80;;
69005;SDS011;56061;51.748;19.620;2022-12-07T14:08:02;39.80;;;14.20;;
69005;SDS011;56061;51.748;19.620;2022-12-07T14:10:37;26.90;;;13.40;;
69005;SDS011;56061;51.748;19.620;2022-12-07T14:13:29;31.80;;;14.50;;
69005;SDS011;56061;51.748;19.620;2022-12-07T14:16:01;45.10;;;15.70;;
69005;SDS011;56061;51.748;19.620;2022-12-07T14:18:35;55.50;;;20.90;;
69005;SDS011;56061;51.748;19.620;2022-12-07T14:23:40;103.20;;;25.90;;
69005;SDS011;56061;51.748;19.620;2022-12-07T14:26:07;76.00;;;22.60;;
69005;SDS011;56061;51.748;19.620;2022-12-07T14:28:37;138.80;;;35.00;;
69005;SDS011;56061;51.748;19.620;2022-12-07T14:31:11;86.80;;;26.00;;
69005;SDS011;56061;51.748;19.620;2022-12-07T14:33:59;64.80;;;23.70;;
69005;SDS011;56061;51.748;19.620;2022-12-07T14:36:26;86.80;;;35.10;;
69005;SDS011;56061;51.748;19.620;2022-12-07T14:38:52;62.60;;;26.30;;
69005;SDS011;56061;51.748;19.620;2022-12-07T14:41:22;64.80;;;25.80;;
69005;SDS011;56061;51.748;19.620;2022-12-07T14:44:11;36.80;;;14.70;;
69005;SDS011;56061;51.748;19.620;2022-12-07T14:46:58;49.30;;;19.70;;
69005;SDS011;56061;51.748;19.620;2022-12-07T14:49:45;43.70;;;16.90;;
69005;SDS011;56061;51.748;19.620;2022-12-07T14:52:22;44.40;;;17.00;;
69005;SDS011;56061;51.748;19.620;2022-12-07T14:55:25;48.80;;;19.00;;
69005;SDS011;56061;51.748;19.620;2022-12-07T14:57:56;31.60;;;13.00;;
69005;SDS011;56061;51.748;19.620;2022-12-07T15:00:26;31.10;;;14.10;;
69005;SDS011;56061;51.748;19.620;2022-12-07T15:02:54;43.80;;;17.80;;
69005;SDS011;56061;51.748;19.620;2022-12-07T15:05:22;43.10;;;18.80;;
69005;SDS011;56061;51.748;19.620;2022-12-07T15:07:49;36.00;;;14.30;;
69005;SDS011;56061;51.748;19.620;2022-12-07T15:10:20;34.30;;;15.00;;
69005;SDS011;56061;51.748;19.620;2022-12-07T15:12:50;47.40;;;21.20;;
69005;SDS011;56061;51.748;19.620;2022-12-07T15:15:17;44.30;;;18.60;;
69005;SDS011;56061;51.748;19.620;2022-12-07T15:17:44;46.90;;;19.00;;
69005;SDS011;56061;51.748;19.620;2022-12-07T15:20:13;49.50;;;19.70;;
69005;SDS011;56061;51.748;19.620;2022-12-07T15:22:42;44.70;;;18.60;;
69005;SDS011;56061;51.748;19.620;2022-12-07T15:25:12;44.80;;;19.70;;
69005;SDS011;56061;51.748;19.620;2022-12-07T15:27:39;45.80;;;18.30;;
69005;SDS011;56061;51.748;19.620;2022-12-07T15:30:06;39.90;;;16.70;;
69005;SDS011;56061;51.748;19.620;2022-12-07T15:32:33;39.60;;;17.70;;
69005;SDS011;56061;51.748;19.620;2022-12-07T15:35:00;40.70;;;16.70;;
69005;SDS011;56061;51.748;19.620;2022-12-07T15:37:27;52.20;;;21.00;;
69005;SDS011;56061;51.748;19.620;2022-12-07T15:39:53;55.50;;;21.90;;
69005;SDS011;56061;51.748;19.620;2022-12-07T15:42:20;59.00;;;22.40;;
69005;SDS011;56061;51.748;19.620;2022-12-07T15:44:47;52.90;;;23.30;;
69005;SDS011;56061;51.748;19.620;2022-12-07T15:47:36;101.70;;;34.20;;
69005;SDS011;56061;51.748;19.620;2022-12-07T15:50:24;126.90;;;40.50;;
69005;SDS011;56061;51.748;19.620;2022-12-07T15:52:51;98.50;;;33.40;;
69005;SDS011;56061;51.748;19.620;2022-12-07T15:55:17;81.20;;;31.70;;
69005;SDS011;56061;51.748;19.620;2022-12-07T15:57:44;60.60;;;22.70;;
69005;SDS011;56061;51.748;19.620;2022-12-07T16:00:11;92.50;;;32.00;;
69005;SDS011;56061;51.748;19.620;2022-12-07T16:02:38;51.10;;;20.40;;
69005;SDS011;56061;51.748;19.620;2022-12-07T16:05:05;72.40;;;26.80;;
69005;SDS011;56061;51.748;19.620;2022-12-07T16:07:32;60.80;;;24.20;;
69005;SDS011;56061;51.748;19.620;2022-12-07T16:09:59;36.50;;;15.50;;
69005;SDS011;56061;51.748;19.620;2022-12-07T16:12:25;40.10;;;15.80;;
69005;SDS011;56061;51.748;19.620;2022-12-07T16:14:51;34.10;;;13.40;;
69005;SDS011;56061;51.748;19.620;2022-12-07T16:17:18;40.80;;;16.90;;
69005;SDS011;56061;51.748;19.620;2022-12-07T16:19:44;47.60;;;19.90;;
69005;SDS011;56061;51.748;19.620;2022-12-07T16:22:11;35.00;;;16.00;;
69005;SDS011;56061;51.748;19.620;2022-12-07T16:24:37;44.10;;;16.60;;
69005;SDS011;56061;51.748;19.620;2022-12-07T16:27:04;52.20;;;18.30;;